Time;durP1;ratioP1;P1;durP2;ratioP2;P2;SDS_P1;SDS_P2;PMS_P1;PMS_P2;Temp;Humidity;BMP_temperature;BMP_pressure;BME280_temperature;BME280_humidity;BME280_pressure;Samples;Min_cycle;Max_cycle;Signal;HPM_P1;HPM_P2
2022/04/11 00:01:52;;;;;;;5.27;1.83;;;;;;;3.41;67.98;100538.50;5076053;28;20032;-82
2022/04/11 00:04:17;;;;;;;4.20;1.77;;;;;;;3.37;66.74;100545.16;5075902;28;20530;-82
2022/04/11 00:06:42;;;;;;;4.37;1.83;;;;;;;3.48;65.49;100539.56;5075761;28;20028;-82
2022/04/11 00:09:08;;;;;;;5.53;1.90;;;;;;;3.49;66.37;100534.09;5076336;28;20742;-82
2022/04/11 00:11:33;;;;;;;5.93;1.90;;;;;;;3.44;66.63;100530.22;5076052;28;20111;-83
2022/04/11 00:13:59;;;;;;;6.33;1.70;;;;;;;3.44;66.38;100540.88;5075603;28;20044;-84
2022/04/11 00:16:25;;;;;;;5.72;1.73;;;;;;;3.67;65.48;100535.88;5075830;28;20378;-82
2022/04/11 00:18:50;;;;;;;3.30;1.60;;;;;;;3.66;66.27;100529.69;5075177;28;20111;-82
2022/04/11 00:21:15;;;;;;;3.20;1.70;;;;;;;3.72;64.13;100526.41;5076338;28;20261;-83
2022/04/11 00:23:40;;;;;;;4.40;1.73;;;;;;;3.74;63.34;100527.09;5061124;28;20387;-83
2022/04/11 00:26:06;;;;;;;3.00;1.40;;;;;;;3.81;63.46;100524.63;5079311;28;20455;-83
2022/04/11 00:28:31;;;;;;;6.30;1.63;;;;;;;3.92;61.76;100519.03;5079195;28;20032;-83
2022/04/11 00:30:56;;;;;;;2.47;1.07;;;;;;;4.08;61.69;100518.25;5079393;28;20059;-87
2022/04/11 00:33:22;;;;;;;3.23;1.37;;;;;;;4.12;61.58;100524.94;5061920;28;20033;-83
2022/04/11 00:35:47;;;;;;;4.67;1.77;;;;;;;4.11;61.30;100525.94;5078545;28;20051;-83
2022/04/11 00:38:12;;;;;;;5.30;1.23;;;;;;;4.20;61.03;100522.28;5079146;28;20115;-83
2022/04/11 00:40:38;;;;;;;4.33;1.87;;;;;;;4.27;60.22;100512.66;5079204;28;20028;-83
2022/04/11 00:43:03;;;;;;;3.92;1.08;;;;;;;4.38;60.25;100523.00;5079732;28;20094;-83
2022/04/11 00:45:28;;;;;;;2.60;0.90;;;;;;;4.38;59.61;100514.19;5079041;28;20394;-84
2022/04/11 00:47:54;;;;;;;5.37;1.20;;;;;;;4.34;60.31;100516.31;5079270;28;20040;-83
2022/04/11 00:50:19;;;;;;;3.50;1.37;;;;;;;4.45;59.93;100509.88;5080094;28;20138;-82
2022/04/11 00:52:49;;;;;;;2.95;1.00;;;;;;;4.52;59.54;100509.03;5061146;28;20474;-82
2022/04/11 00:55:16;;;;;;;3.65;1.10;;;;;;;4.48;59.60;100512.19;5078831;28;20029;-82
2022/04/11 00:57:42;;;;;;;5.78;1.75;;;;;;;4.33;60.42;100504.00;5079863;28;20120;-82
2022/04/11 01:00:08;;;;;;;3.22;1.30;;;;;;;4.40;59.70;100510.34;5076345;28;20032;-82
2022/04/11 01:02:34;;;;;;;;;;;;;;;4.36;60.47;100505.50;5058350;28;20037;-82
2022/04/11 01:05:00;;;;;;;2.80;1.17;;;;;;;4.47;60.05;100506.03;5075681;28;19908;-82
2022/04/11 01:07:26;;;;;;;4.30;1.42;;;;;;;4.43;59.70;100502.03;5075732;28;20040;-82
2022/04/11 01:09:51;;;;;;;3.60;1.40;;;;;;;4.37;60.19;100507.16;5075876;28;20140;-82
2022/04/11 01:12:18;;;;;;;4.30;1.50;;;;;;;4.37;59.93;100502.66;5075953;28;20378;-82
2022/04/11 01:14:43;;;;;;;;;;;;;;;4.38;59.33;100499.00;5078646;28;20053;-82
2022/04/11 01:17:08;;;;;;;4.40;1.30;;;;;;;4.29;60.81;100502.66;5082727;28;19984;-82
2022/04/11 01:19:34;;;;;;;3.40;1.40;;;;;;;4.40;59.95;100496.19;5087921;28;20028;-82
2022/04/11 01:21:59;;;;;;;4.20;1.50;;;;;;;4.42;60.22;100499.53;5088102;28;20039;-82
2022/04/11 01:24:28;;;;;;;5.20;1.40;;;;;;;4.49;59.28;100489.84;5085484;28;20040;-82
2022/04/11 01:26:54;;;;;;;4.50;1.20;;;;;;;4.49;59.41;100488.00;5086851;28;20274;-82
2022/04/11 01:29:20;;;;;;;2.90;1.30;;;;;;;4.64;59.28;100487.41;5083972;28;20028;-83
2022/04/11 01:31:46;;;;;;;4.30;1.70;;;;;;;4.59;59.02;100485.22;5060925;28;20028;-83
2022/04/11 01:34:12;;;;;;;3.08;1.13;;;;;;;4.53;58.74;100481.34;5077774;28;20032;-84
2022/04/11 01:36:37;;;;;;;3.05;1.30;;;;;;;4.56;58.85;100474.84;5081765;28;20644;-84
2022/04/11 01:39:03;;;;;;;4.73;1.93;;;;;;;4.49;58.95;100469.34;5081821;28;20444;-84
2022/04/11 01:41:28;;;;;;;4.22;1.50;;;;;;;4.48;59.10;100469.50;5063291;28;20064;-84
2022/04/11 01:43:53;;;;;;;3.37;1.10;;;;;;;4.53;58.84;100468.00;5063674;28;20051;-83
2022/04/11 01:46:19;;;;;;;3.30;1.57;;;;;;;4.55;58.33;100473.19;5079457;28;20028;-82
2022/04/11 01:48:44;;;;;;;3.50;1.40;;;;;;;4.58;58.95;100462.19;5078376;28;20024;-82
2022/04/11 01:51:12;;;;;;;2.63;1.02;;;;;;;4.57;57.87;100465.03;5078624;28;20028;-82
2022/04/11 01:53:37;;;;;;;4.53;1.70;;;;;;;4.55;58.38;100470.53;5078461;28;20060;-83
2022/04/11 01:56:03;;;;;;;2.80;1.30;;;;;;;4.56;58.54;100474.03;5078134;28;20071;-83
2022/04/11 01:58:29;;;;;;;5.47;1.35;;;;;;;4.46;59.48;100463.53;5078366;28;20025;-83
2022/04/11 02:00:55;;;;;;;6.50;1.25;;;;;;;4.63;59.21;100469.72;5078791;28;20531;-84
2022/04/11 02:03:20;;;;;;;5.22;1.52;;;;;;;4.69;58.58;100466.34;5080698;28;20036;-83
2022/04/11 02:05:45;;;;;;;3.10;1.27;;;;;;;4.73;58.06;100462.38;5082397;28;20383;-83
2022/04/11 02:08:11;;;;;;;6.03;1.87;;;;;;;4.77;58.77;100459.19;5064037;28;20425;-83
2022/04/11 02:10:37;;;;;;;4.27;1.40;;;;;;;4.76;58.26;100459.38;5081303;28;20028;-83
2022/04/11 02:13:04;;;;;;;4.22;1.30;;;;;;;4.77;58.14;100458.38;5078414;28;20024;-82
2022/04/11 02:15:29;;;;;;;3.17;1.15;;;;;;;4.76;57.68;100451.34;5059668;28;20040;-83
2022/04/11 02:17:55;;;;;;;5.32;1.42;;;;;;;4.82;57.91;100458.72;5078491;28;20056;-83
2022/04/11 02:20:21;;;;;;;3.50;1.25;;;;;;;4.96;56.43;100451.84;5060481;28;20052;-82
2022/04/11 02:22:52;;;;;;;3.67;1.20;;;;;;;4.93;57.04;100455.69;5077985;28;20112;-83
2022/04/11 02:25:20;;;;;;;2.47;1.08;;;;;;;4.87;56.89;100446.50;5078840;28;20039;-82
2022/04/11 02:27:46;;;;;;;4.70;1.17;;;;;;;4.94;56.16;100449.34;5078152;28;20070;-82
2022/04/11 02:30:12;;;;;;;;;;;;;;;4.91;55.99;100451.53;5061035;28;20111;-82
2022/04/11 02:32:37;;;;;;;3.17;1.17;;;;;;;4.92;57.02;100447.84;5077957;28;20349;-82
2022/04/11 02:35:04;;;;;;;4.25;1.45;;;;;;;4.92;56.86;100455.84;5079737;28;20028;-82
2022/04/11 02:37:30;;;;;;;6.18;1.80;;;;;;;4.89;57.00;100449.84;5077296;28;20167;-82
2022/04/11 02:39:56;;;;;;;3.55;1.80;;;;;;;4.91;56.32;100457.69;5079784;28;20033;-83
2022/04/11 02:42:22;;;;;;;3.10;1.30;;;;;;;4.84;57.17;100451.34;5080311;28;20051;-82
2022/04/11 02:44:48;;;;;;;4.13;1.67;;;;;;;4.92;56.48;100451.34;5078180;28;20036;-82
2022/04/11 02:47:13;;;;;;;2.60;1.08;;;;;;;5.05;55.77;100441.00;5059664;28;20356;-81
2022/04/11 02:49:38;;;;;;;3.17;1.13;;;;;;;5.05;56.12;100457.00;5079522;28;20111;-83
2022/04/11 02:52:04;;;;;;;4.40;1.10;;;;;;;5.16;55.81;100461.19;5078931;28;20033;-82
2022/04/11 02:54:29;;;;;;;4.38;1.65;;;;;;;5.19;55.54;100456.34;5079356;28;20457;-83
2022/04/11 02:56:55;;;;;;;3.00;1.20;;;;;;;5.21;55.90;100456.16;5078941;28;20036;-83
2022/04/11 02:59:20;;;;;;;4.73;1.47;;;;;;;5.17;55.91;100458.34;5060365;28;20071;-83
2022/04/11 03:01:45;;;;;;;3.20;1.30;;;;;;;5.12;55.66;100466.03;5077411;28;20067;-83
2022/04/11 03:04:11;;;;;;;2.83;1.17;;;;;;;5.16;55.51;100466.53;5077602;28;20089;-83
2022/04/11 03:06:36;;;;;;;3.90;1.30;;;;;;;5.13;56.21;100462.34;5077995;28;20262;-82
2022/04/11 03:09:03;;;;;;;2.30;1.03;;;;;;;5.13;55.22;100466.88;5077636;28;20379;-83
2022/04/11 03:11:28;;;;;;;2.97;1.10;;;;;;;5.11;55.13;100463.53;5077879;28;20039;-84
2022/04/11 03:13:56;;;;;;;2.50;1.17;;;;;;;5.05;55.46;100470.38;5077237;28;20459;-83
2022/04/11 03:16:21;;;;;;;2.55;1.00;;;;;;;5.15;54.89;100459.53;5076970;28;20024;-83
2022/04/11 03:18:46;;;;;;;5.17;1.00;;;;;;;5.26;54.16;100463.66;5077251;28;20486;-82
2022/04/11 03:21:12;;;;;;;4.47;1.37;;;;;;;5.35;54.61;100455.47;5077229;28;20052;-83
2022/04/11 03:23:37;;;;;;;3.17;1.43;;;;;;;5.23;54.24;100457.66;5077398;28;20041;-83
2022/04/11 03:26:02;;;;;;;2.53;0.83;;;;;;;5.30;55.06;100454.31;5077730;28;20057;-83
2022/04/11 03:28:27;;;;;;;2.27;0.97;;;;;;;5.42;54.54;100450.28;5077126;28;20523;-83
2022/04/11 03:30:53;;;;;;;2.57;1.20;;;;;;;5.41;53.94;100446.75;5076988;28;20035;-83
2022/04/11 03:33:18;;;;;;;2.87;1.17;;;;;;;5.57;53.56;100456.56;5076930;28;20028;-82
2022/04/11 03:35:43;;;;;;;3.03;1.30;;;;;;;5.41;53.92;100452.09;5059421;28;20036;-83
2022/04/11 03:38:09;;;;;;;2.43;1.00;;;;;;;5.51;54.18;100452.78;5077246;28;20099;-82
2022/04/11 03:40:34;;;;;;;3.80;0.97;;;;;;;5.49;53.99;100452.09;5059413;28;20332;-83
2022/04/11 03:42:59;;;;;;;2.93;1.50;;;;;;;5.43;53.84;100452.78;5076977;28;20028;-83
2022/04/11 03:45:25;;;;;;;5.70;1.40;;;;;;;5.44;53.91;100448.25;5079882;28;20036;-83
2022/04/11 03:47:50;;;;;;;5.50;1.20;;;;;;;5.35;53.58;100451.97;5081861;28;20029;-83
2022/04/11 03:50:15;;;;;;;2.37;1.10;;;;;;;5.47;53.64;100447.94;5081994;28;20502;-80
2022/04/11 03:52:41;;;;;;;3.50;1.53;;;;;;;5.48;53.52;100449.59;5079033;28;20029;-81
2022/04/11 03:55:06;;;;;;;3.53;1.40;;;;;;;5.28;53.54;100449.13;5087540;28;20028;-81
2022/04/11 03:57:33;;;;;;;3.75;1.58;;;;;;;5.38;54.03;100451.59;5059455;28;20020;-81
2022/04/11 03:59:58;;;;;;;3.88;1.30;;;;;;;5.29;54.23;100444.63;5076989;28;20513;-80
2022/04/11 04:02:23;;;;;;;3.20;1.20;;;;;;;5.29;54.27;100452.66;5076707;28;20025;-82
2022/04/11 04:04:49;;;;;;;3.57;1.37;;;;;;;5.31;54.11;100447.97;5076194;28;20036;-81
2022/04/11 04:07:14;;;;;;;3.33;1.23;;;;;;;5.24;53.82;100445.13;5076219;28;20028;-81
2022/04/11 04:09:39;;;;;;;2.93;1.20;;;;;;;5.26;53.89;100443.13;5077107;28;20127;-80
2022/04/11 04:12:05;;;;;;;3.57;1.20;;;;;;;5.36;53.42;100434.94;5078084;28;20054;-80
2022/04/11 04:14:30;;;;;;;3.10;1.40;;;;;;;5.31;53.82;100437.28;5078909;28;20052;-84
2022/04/11 04:16:56;;;;;;;3.57;1.30;;;;;;;5.28;54.03;100433.13;5080586;28;20386;-83
2022/04/11 04:19:21;;;;;;;4.13;1.20;;;;;;;5.26;54.27;100436.94;5085774;28;20021;-84
2022/04/11 04:21:47;;;;;;;6.13;1.70;;;;;;;5.33;54.17;100429.94;5092330;28;20036;-83
2022/04/11 04:24:12;;;;;;;5.05;1.33;;;;;;;5.42;54.01;100431.56;5051422;28;20346;-83
2022/04/11 04:26:38;;;;;;;3.13;1.25;;;;;;;5.30;54.27;100432.94;5095778;28;20036;-83
2022/04/11 04:29:03;;;;;;;2.97;1.10;;;;;;;5.30;54.88;100440.97;5087290;28;20036;-83
2022/04/11 04:31:30;;;;;;;3.92;1.20;;;;;;;5.29;54.11;100440.13;5090204;28;20033;-81
2022/04/11 04:33:55;;;;;;;3.22;1.38;;;;;;;5.38;54.41;100435.56;5094097;28;20058;-82
2022/04/11 04:36:21;;;;;;;4.00;1.20;;;;;;;5.30;54.60;100435.63;5076339;28;20096;-82
2022/04/11 04:38:46;;;;;;;3.03;1.20;;;;;;;5.17;54.75;100430.81;5095288;28;20040;-85
2022/04/11 04:41:11;;;;;;;4.10;1.07;;;;;;;5.30;54.93;100441.78;5076825;28;20028;-81
2022/04/11 04:43:37;;;;;;;3.13;1.23;;;;;;;5.25;54.74;100438.78;5095002;28;20009;-83
2022/04/11 04:46:02;;;;;;;2.80;1.20;;;;;;;5.13;55.47;100441.00;5095151;28;20282;-83
2022/04/11 04:48:27;;;;;;;1.97;0.90;;;;;;;5.13;55.00;100446.34;5078262;28;20037;-83
2022/04/11 04:50:54;;;;;;;2.73;1.23;;;;;;;5.16;55.08;100440.66;5095598;28;20072;-85
2022/04/11 04:53:20;;;;;;;2.45;1.00;;;;;;;5.21;54.82;100443.63;5095515;28;20047;-83
2022/04/11 04:55:46;;;;;;;3.47;1.38;;;;;;;5.29;55.19;100440.13;5096001;28;20016;-85
2022/04/11 04:58:12;;;;;;;3.58;1.23;;;;;;;5.21;55.17;100438.28;5096560;28;20027;-85
2022/04/11 05:00:40;;;;;;;5.23;1.30;;;;;;;5.29;55.13;100444.63;5095854;28;20029;-85
2022/04/11 05:03:05;;;;;;;4.25;1.20;;;;;;;5.22;56.03;100444.47;5096115;28;20032;-85
2022/04/11 05:05:31;;;;;;;3.47;1.20;;;;;;;5.26;55.23;100435.13;5078656;28;20037;-83
2022/04/11 05:07:56;;;;;;;2.83;1.40;;;;;;;5.22;55.53;100434.63;5089138;28;20039;-85
2022/04/11 05:10:21;;;;;;;3.63;0.90;;;;;;;5.28;55.30;100434.94;5085839;28;20021;-85
2022/04/11 05:12:48;;;;;;;4.63;1.20;;;;;;;5.15;55.16;100441.66;5068826;28;20114;-83
2022/04/11 05:15:14;;;;;;;;;;;;;;;5.11;55.34;100436.81;5086492;28;20051;-84
2022/04/11 05:17:39;;;;;;;5.30;0.93;;;;;;;5.07;55.20;100432.81;5086089;28;19912;-84
2022/04/11 05:20:09;;;;;;;2.53;1.05;;;;;;;5.04;55.81;100439.31;5088539;28;20029;-86
2022/04/11 05:22:34;;;;;;;4.07;1.42;;;;;;;4.96;55.75;100434.00;5067267;28;20482;-84
2022/04/11 05:25:00;;;;;;;4.75;1.73;;;;;;;4.87;56.60;100437.66;5085000;28;20036;-84
2022/04/11 05:27:25;;;;;;;4.35;1.38;;;;;;;4.88;56.25;100434.00;5051140;28;20033;-84
2022/04/11 05:29:51;;;;;;;3.77;1.43;;;;;;;4.82;57.08;100440.03;5086450;28;20092;-84
2022/04/11 05:32:16;;;;;;;3.30;1.30;;;;;;;4.86;56.44;100439.50;5085888;28;20037;-85
2022/04/11 05:34:42;;;;;;;2.20;1.00;;;;;;;4.78;57.32;100436.00;5067610;28;20271;-84
2022/04/11 05:37:11;;;;;;;2.72;1.33;;;;;;;4.82;56.95;100435.53;5085475;28;20077;-84
2022/04/11 05:39:36;;;;;;;2.80;1.05;;;;;;;4.82;56.74;100432.84;5066245;28;20430;-84
2022/04/11 05:42:02;;;;;;;3.27;1.20;;;;;;;4.87;57.12;100438.50;5081198;28;20032;-83
2022/04/11 05:44:27;;;;;;;3.50;1.55;;;;;;;4.90;56.34;100434.66;5078575;28;20299;-83
2022/04/11 05:46:55;;;;;;;3.43;1.20;;;;;;;5.04;56.06;100425.97;5061468;28;20063;-84
2022/04/11 05:49:21;;;;;;;2.83;1.30;;;;;;;5.07;55.69;100435.47;5080364;28;20025;-84
2022/04/11 05:51:47;;;;;;;2.65;1.20;;;;;;;5.20;56.00;100430.44;5078622;28;20028;-83
2022/04/11 05:54:12;;;;;;;6.93;1.48;;;;;;;5.20;55.88;100420.59;5079292;28;20387;-85
2022/04/11 05:56:38;;;;;;;3.03;1.15;;;;;;;5.23;56.20;100428.28;5062195;28;20131;-83
2022/04/11 05:59:04;;;;;;;4.32;1.42;;;;;;;5.41;55.23;100417.38;5061329;28;20036;-85
2022/04/11 06:01:30;;;;;;;5.95;1.25;;;;;;;5.51;54.74;100423.38;5063542;28;20078;-84
2022/04/11 06:03:59;;;;;;;2.72;1.02;;;;;;;5.67;54.50;100411.78;5080458;28;20170;-82
2022/04/11 06:06:24;;;;;;;3.55;1.40;;;;;;;5.87;54.04;100415.69;5063819;28;20033;-82
2022/04/11 06:08:51;;;;;;;4.63;1.47;;;;;;;5.92;53.91;100412.50;5080681;28;20477;-83
2022/04/11 06:11:17;;;;;;;3.15;1.40;;;;;;;5.99;54.49;100418.00;5081025;28;20032;-82
2022/04/11 06:13:45;;;;;;;3.38;1.63;;;;;;;6.10;53.52;100421.09;5079960;28;20049;-81
2022/04/11 06:16:11;;;;;;;4.57;1.75;;;;;;;6.33;52.52;100407.75;5061405;28;20068;-84
2022/04/11 06:18:36;;;;;;;2.92;1.23;;;;;;;6.37;52.88;100419.78;5080376;28;20063;-83
2022/04/11 06:21:02;;;;;;;4.17;1.67;;;;;;;6.42;52.07;100419.25;5061538;28;20475;-81
2022/04/11 06:23:27;;;;;;;3.13;1.00;;;;;;;6.48;51.58;100426.56;5079596;28;20108;-82
2022/04/11 06:25:52;;;;;;;3.30;1.00;;;;;;;6.52;51.57;100425.19;5063291;28;20035;-84
2022/04/11 06:28:18;;;;;;;2.80;1.45;;;;;;;6.56;51.42;100423.84;5083806;28;20087;-83
2022/04/11 06:30:44;;;;;;;5.30;1.17;;;;;;;6.67;51.25;100415.38;5069107;28;20024;-80
2022/04/11 06:33:09;;;;;;;3.58;1.17;;;;;;;6.78;51.34;100425.69;5062119;28;20024;-80
2022/04/11 06:35:35;;;;;;;2.37;1.10;;;;;;;6.82;50.77;100423.44;5078894;28;20035;-82
2022/04/11 06:38:00;;;;;;;3.53;1.30;;;;;;;6.92;50.93;100418.69;5079047;28;20024;-82
2022/04/11 06:40:25;;;;;;;4.00;1.00;;;;;;;7.01;51.04;100420.25;5079263;28;20039;-82
2022/04/11 06:42:51;;;;;;;3.37;1.17;;;;;;;7.22;50.63;100420.38;5079251;28;20029;-81
2022/04/11 06:45:16;;;;;;;6.40;1.27;;;;;;;7.21;50.85;100413.38;5063718;28;20270;-82
2022/04/11 06:47:44;;;;;;;4.15;1.05;;;;;;;7.30;50.85;100419.47;5080795;28;20287;-82
2022/04/11 06:50:10;;;;;;;3.60;1.48;;;;;;;7.40;49.91;100427.25;5079092;28;20036;-83
2022/04/11 06:52:36;;;;;;;3.38;1.25;;;;;;;7.53;49.79;100427.41;5078415;28;20069;-82
2022/04/11 06:55:01;;;;;;;3.67;1.67;;;;;;;7.68;49.97;100425.59;5080618;28;20048;-82
2022/04/11 06:57:26;;;;;;;3.83;1.53;;;;;;;7.76;48.92;100422.78;5081406;28;20361;-82
2022/04/11 06:59:52;;;;;;;3.50;1.57;;;;;;;7.89;49.73;100424.81;5081582;28;20025;-83
2022/04/11 07:02:17;;;;;;;6.40;1.67;;;;;;;7.89;49.37;100422.97;5081280;28;20088;-82
2022/04/11 07:04:42;;;;;;;4.40;1.10;;;;;;;7.97;49.92;100425.53;5081029;28;20263;-82
2022/04/11 07:07:08;;;;;;;3.38;1.30;;;;;;;7.98;49.15;100421.84;5081002;28;20059;-82
2022/04/11 07:09:33;;;;;;;2.45;1.08;;;;;;;8.14;49.30;100422.63;5082514;28;20032;-83
2022/04/11 07:11:59;;;;;;;3.67;1.50;;;;;;;8.33;49.10;100420.22;5081037;28;20346;-82
2022/04/11 07:14:25;;;;;;;3.45;1.15;;;;;;;8.55;47.58;100430.97;5080949;28;20403;-83
2022/04/11 07:16:52;;;;;;;;;;;;;;;8.76;47.33;100427.44;5062505;28;20032;-83
2022/04/11 07:19:18;;;;;;;2.70;0.90;;;;;;;8.64;46.81;100427.94;5063133;28;19912;-82
2022/04/11 07:21:45;;;;;;;3.78;1.33;;;;;;;8.74;47.55;100426.81;5084152;28;20036;-83
2022/04/11 07:24:11;;;;;;;2.80;1.00;;;;;;;8.69;48.02;100430.91;5065022;28;20036;-85
2022/04/11 07:26:40;;;;;;;2.58;1.13;;;;;;;8.95;46.96;100424.09;5082844;28;20039;-84
2022/04/11 07:29:06;;;;;;;4.18;1.27;;;;;;;8.95;47.14;100430.31;5062983;28;20037;-81
2022/04/11 07:31:31;;;;;;;3.53;1.10;;;;;;;9.24;46.60;100413.16;5080408;28;20028;-82
2022/04/11 07:33:56;;;;;;;4.20;1.30;;;;;;;9.19;46.87;100423.66;5080759;28;20041;-81
2022/04/11 07:36:22;;;;;;;3.63;1.17;;;;;;;9.37;45.88;100407.03;5083896;28;20036;-81
2022/04/11 07:38:47;;;;;;;3.42;1.40;;;;;;;9.43;46.69;100417.00;5088300;28;20025;-81
2022/04/11 07:41:15;;;;;;;3.72;1.38;;;;;;;9.59;45.77;100418.53;5071244;28;20082;-81
2022/04/11 07:43:40;;;;;;;5.63;1.38;;;;;;;9.65;44.93;100410.50;5087637;28;20032;-83
2022/04/11 07:46:05;;;;;;;4.27;1.00;;;;;;;9.74;44.82;100419.22;5084846;28;20056;-80
2022/04/11 07:48:32;;;;;;;3.97;1.33;;;;;;;9.49;44.99;100416.22;5085732;28;20036;-80
2022/04/11 07:50:58;;;;;;;3.42;1.25;;;;;;;9.65;44.69;100413.22;5086906;28;20277;-81
2022/04/11 07:53:23;;;;;;;2.83;1.08;;;;;;;9.65;45.38;100418.59;5081173;28;20060;-81
2022/04/11 07:55:48;;;;;;;2.50;1.02;;;;;;;9.67;44.58;100413.81;5083227;28;20062;-82
2022/04/11 07:58:15;;;;;;;3.10;1.30;;;;;;;9.75;44.17;100412.81;5085505;28;20066;-81
2022/04/11 08:00:41;;;;;;;4.43;1.40;;;;;;;9.86;44.12;100416.78;5086118;28;20255;-81
2022/04/11 08:03:06;;;;;;;2.42;0.88;;;;;;;9.74;45.00;100416.53;5047526;28;20390;-80
2022/04/11 08:05:32;;;;;;;3.43;1.23;;;;;;;9.75;43.84;100416.34;5080939;28;20065;-80
2022/04/11 08:07:57;;;;;;;2.88;1.17;;;;;;;9.69;43.92;100427.06;5078834;28;20097;-80
2022/04/11 08:10:23;;;;;;;3.78;1.33;;;;;;;9.73;44.16;100417.56;5079011;28;20056;-82
2022/04/11 08:12:55;;;;;;;2.10;1.00;;;;;;;10.08;43.96;100418.34;5064039;28;20032;-85
2022/04/11 08:15:22;;;;;;;4.75;1.30;;;;;;;10.12;43.18;100408.84;5081084;28;20051;-82
2022/04/11 08:17:47;;;;;;;2.42;0.93;;;;;;;10.28;43.10;100413.06;5082589;28;20028;-85
2022/04/11 08:20:13;;;;;;;2.50;1.10;;;;;;;10.39;42.28;100407.91;5064838;28;20056;-86
2022/04/11 08:22:38;;;;;;;4.80;1.33;;;;;;;10.32;42.79;100403.53;5067255;28;20032;-82
2022/04/11 08:25:04;;;;;;;4.10;0.90;;;;;;;10.41;43.64;100388.84;5084458;28;20266;-83
2022/04/11 08:27:31;;;;;;;4.22;1.45;;;;;;;10.54;43.74;100396.13;5082734;28;20020;-84
2022/04/11 08:29:57;;;;;;;3.05;1.00;;;;;;;10.75;43.49;100395.91;5082131;28;20029;-82
2022/04/11 08:32:23;;;;;;;3.10;1.20;;;;;;;10.66;42.16;100398.00;5080860;28;20031;-82
2022/04/11 08:34:49;;;;;;;2.55;1.10;;;;;;;10.56;42.06;100402.97;5062084;28;20033;-82
2022/04/11 08:37:14;;;;;;;3.05;0.98;;;;;;;10.56;41.75;100396.75;5060650;28;20046;-81
2022/04/11 08:39:41;;;;;;;3.03;1.00;;;;;;;10.61;41.47;100389.69;5061496;28;20048;-83
2022/04/11 08:42:07;;;;;;;2.83;1.00;;;;;;;10.46;41.26;100399.84;5079011;28;20356;-82
2022/04/11 08:44:36;;;;;;;3.05;0.73;;;;;;;10.58;41.33;100389.28;5063663;28;20092;-85
2022/04/11 08:47:04;;;;;;;3.90;1.00;;;;;;;10.87;41.41;100393.44;5080943;28;20054;-84
2022/04/11 08:49:30;;;;;;;3.53;1.20;;;;;;;11.00;41.14;100390.75;5081265;28;20028;-84
2022/04/11 08:51:55;;;;;;;4.10;0.90;;;;;;;11.03;42.05;100393.03;5061626;28;20407;-84
2022/04/11 08:54:21;;;;;;;4.60;1.00;;;;;;;10.88;41.25;100390.56;5082178;28;20033;-85
2022/04/11 08:56:47;;;;;;;3.25;1.10;;;;;;;10.76;40.50;100394.88;5084419;28;20084;-84
2022/04/11 08:59:14;;;;;;;3.93;0.80;;;;;;;10.73;41.60;100387.25;5069770;28;20032;-82
2022/04/11 09:01:40;;;;;;;3.53;1.15;;;;;;;10.88;41.55;100390.56;5062077;28;20406;-84
2022/04/11 09:04:08;;;;;;;4.65;1.20;;;;;;;11.13;40.92;100390.72;5078173;28;20036;-84
2022/04/11 09:06:34;;;;;;;3.95;0.93;;;;;;;11.01;40.94;100397.81;5078064;28;20035;-83
2022/04/11 09:08:59;;;;;;;4.38;1.25;;;;;;;10.83;41.14;100392.19;5060090;28;20457;-82
2022/04/11 09:11:36;;;;;;;2.60;1.00;;;;;;;10.99;40.72;100386.38;5077554;28;20103;-82
2022/04/11 09:14:03;;;;;;;;;;;;;;;11.11;39.71;100388.25;5079080;28;20107;-82
2022/04/11 09:16:42;;;;;;;4.22;1.77;;;;;;;10.93;39.83;100387.22;5077241;28;20252;-78
2022/04/11 09:19:18;;;;;;;2.88;1.00;;;;;;;11.03;40.77;100376.84;5080840;28;20052;-82
2022/04/11 09:21:44;;;;;;;4.15;1.40;;;;;;;11.17;39.84;100381.19;5081066;28;20467;-83
2022/04/11 09:24:19;;;;;;;;;;;;;;;11.13;40.57;100364.59;5065099;28;20029;-78
2022/04/11 09:26:45;;;;;;;2.67;1.00;;;;;;;11.22;40.26;100370.59;5076878;28;19967;-78
2022/04/11 09:29:10;;;;;;;3.60;1.05;;;;;;;11.41;40.53;100369.75;5077140;28;20033;-79
2022/04/11 09:31:36;;;;;;;2.92;1.30;;;;;;;11.14;39.45;100365.41;5077995;28;20029;-78
2022/04/11 09:34:19;;;;;;;2.85;1.00;;;;;;;11.29;39.21;100366.00;5078987;28;20021;-78
2022/04/11 09:36:47;;;;;;;2.20;1.20;;;;;;;11.20;39.16;100361.91;5077784;28;20028;-79
2022/04/11 09:39:14;;;;;;;3.45;1.05;;;;;;;11.32;39.63;100357.50;5076135;28;20024;-79
2022/04/11 09:41:48;;;;;;;2.67;1.00;;;;;;;11.57;39.09;100359.50;5079576;28;20032;-81
2022/04/11 09:44:23;;;;;;;2.58;0.93;;;;;;;11.62;38.36;100347.06;5078814;28;20040;-81
2022/04/11 09:46:50;;;;;;;10.00;1.45;;;;;;;11.63;39.16;100348.72;5081877;28;20513;-80
2022/04/11 09:49:17;;;;;;;4.20;1.58;;;;;;;11.48;39.80;100338.16;5081553;28;20044;-79
2022/04/11 09:52:00;;;;;;;2.17;0.82;;;;;;;11.85;37.60;100343.84;5083155;28;20055;-84
2022/04/11 09:54:27;;;;;;;2.65;1.00;;;;;;;11.87;38.05;100340.94;5065848;28;20036;-79
2022/04/11 09:56:53;;;;;;;2.88;1.20;;;;;;;11.96;39.21;100332.38;5081094;28;20024;-79
2022/04/11 09:59:22;;;;;;;4.03;1.10;;;;;;;11.96;39.47;100343.19;5083240;28;20122;-78
2022/04/11 10:01:50;;;;;;;2.80;1.10;;;;;;;12.30;38.62;100338.41;5082558;28;20024;-79
2022/04/11 10:04:18;;;;;;;2.40;1.10;;;;;;;12.47;37.31;100326.03;5081172;28;20436;-80
2022/04/11 10:06:43;;;;;;;3.25;1.08;;;;;;;12.66;37.11;100341.25;5085355;28;20443;-79
2022/04/11 10:09:09;;;;;;;4.57;1.20;;;;;;;12.39;36.80;100326.28;5082522;28;20024;-79
2022/04/11 10:11:35;;;;;;;3.97;1.65;;;;;;;12.43;36.90;100316.69;5082314;28;20032;-79
2022/04/11 10:14:01;;;;;;;4.47;1.20;;;;;;;12.18;36.76;100317.47;5079339;28;20048;-78
2022/04/11 10:16:27;;;;;;;3.35;1.20;;;;;;;12.14;37.36;100310.88;5079260;28;20036;-78
2022/04/11 10:18:59;;;;;;;3.78;1.40;;;;;;;12.44;37.18;100312.94;5083050;28;20032;-79
2022/04/11 10:21:26;;;;;;;2.35;1.10;;;;;;;12.38;37.41;100313.81;5082524;28;20036;-78
2022/04/11 10:24:06;;;;;;;5.03;1.10;;;;;;;12.47;36.54;100317.91;5078972;28;20028;-77
2022/04/11 10:26:55;;;;;;;3.40;1.45;;;;;;;12.60;36.46;100301.59;5083572;28;20467;-78
2022/04/11 10:29:31;;;;;;;3.53;1.13;;;;;;;12.69;36.16;100312.97;5082920;28;20090;-80
2022/04/11 10:32:09;;;;;;;2.67;1.10;;;;;;;12.68;36.33;100303.19;5090104;28;20032;-79
2022/04/11 10:35:01;;;;;;;2.90;1.20;;;;;;;12.98;35.50;100312.25;5082221;28;20029;-78
2022/04/11 10:37:30;;;;;;;3.40;1.00;;;;;;;12.79;35.74;100294.34;5081318;28;20035;-76
2022/04/11 10:40:31;;;;;;;3.55;1.20;;;;;;;12.81;36.34;100300.38;5075396;28;20104;-75
2022/04/11 10:43:08;;;;;;;1.67;0.80;;;;;;;13.03;35.86;100298.91;4993760;28;20458;-77
2022/04/11 10:45:41;;;;;;;4.18;1.33;;;;;;;13.03;35.77;100287.25;5064559;28;20040;-76
2022/04/11 10:48:08;;;;;;;3.30;1.35;;;;;;;13.15;35.15;100307.13;5075537;28;20029;-76
2022/04/11 10:50:43;;;;;;;2.70;1.10;;;;;;;13.05;34.24;100299.50;5075356;28;20089;-75
2022/04/11 10:53:24;;;;;;;2.83;1.08;;;;;;;12.46;35.35;100286.53;5075567;28;20168;-75
2022/04/11 10:56:06;;;;;;;3.00;1.20;;;;;;;12.61;34.98;100275.38;5075317;28;20040;-76
2022/04/11 10:58:51;;;;;;;3.13;1.25;;;;;;;13.02;34.59;100282.91;5075484;28;20041;-76
2022/04/11 11:01:43;;;;;;;3.20;1.20;;;;;;;13.16;34.71;100270.91;5075175;28;20109;-75
2022/04/11 11:04:22;;;;;;;2.67;1.10;;;;;;;13.30;34.32;100272.41;5075133;28;20036;-75
2022/04/11 11:07:23;;;;;;;5.80;1.40;;;;;;;13.36;33.66;100273.38;5075066;28;20055;-76
2022/04/11 11:09:54;;;;;;;5.32;1.73;;;;;;;13.20;33.97;100275.66;5074821;28;20032;-76
2022/04/11 11:12:20;;;;;;;3.50;1.10;;;;;;;13.55;33.58;100270.44;5075377;28;20071;-76
2022/04/11 11:14:46;;;;;;;;;;;;;;;13.27;33.64;100247.66;5057221;28;20566;-76
2022/04/11 11:17:11;;;;;;;3.40;1.50;;;;;;;13.19;33.32;100252.34;5075171;28;20014;-76
2022/04/11 11:20:06;;;;;;;4.07;1.45;;;;;;;13.42;33.50;100243.53;5074447;28;20029;-76
2022/04/11 11:22:33;;;;;;;5.53;1.30;;;;;;;13.46;34.14;100246.59;5074678;28;20035;-76
2022/04/11 11:25:18;;;;;;;2.85;1.10;;;;;;;13.56;32.70;100246.91;5074379;28;20039;-76
2022/04/11 11:27:45;;;;;;;3.05;1.27;;;;;;;13.90;33.04;100245.38;5074321;28;20491;-76
2022/04/11 11:30:12;;;;;;;3.53;1.20;;;;;;;13.89;33.32;100224.75;5074426;28;20028;-79
2022/04/11 11:32:40;;;;;;;4.20;1.20;;;;;;;14.10;32.80;100235.06;5076024;28;20025;-76
2022/04/11 11:35:07;;;;;;;5.03;1.60;;;;;;;13.58;33.16;100231.25;5056511;28;20035;-75